Time;durP1;ratioP1;P1;durP2;ratioP2;P2;SDS_P1;SDS_P2;PMS_P1;PMS_P2;Temp;Humidity;BMP_temperature;BMP_pressure;BME280_temperature;BME280_humidity;BME280_pressure;Samples;Min_cycle;Max_cycle;Signal;HPM_P1;HPM_P2
2021/08/11 00:00:52;;;;;;;12.13;5.53;;;;;;;19.83;74.41;100426.63;126294;1099;104181;-77
2021/08/11 00:03:29;;;;;;;12.30;5.77;;;;;;;19.82;73.94;100432.86;125316;1099;104143;-77
2021/08/11 00:06:02;;;;;;;14.90;5.37;;;;;;;19.81;73.50;100427.53;126289;1099;104158;-77
2021/08/11 00:08:33;;;;;;;13.73;5.87;;;;;;;19.79;73.82;100423.97;126321;1099;104168;-77
2021/08/11 00:11:06;;;;;;;12.97;5.83;;;;;;;19.76;74.16;100427.52;126301;1099;104172;-77
2021/08/11 00:13:37;;;;;;;13.87;5.63;;;;;;;19.75;74.61;100431.94;126333;1099;104248;-76
2021/08/11 00:16:08;;;;;;;10.67;5.27;;;;;;;19.72;74.33;100431.06;126272;1098;104778;-77
2021/08/11 00:18:39;;;;;;;10.90;5.90;;;;;;;19.70;74.87;100433.73;126318;1099;104149;-77
2021/08/11 00:21:10;;;;;;;12.17;6.13;;;;;;;19.67;74.76;100435.53;126348;1099;104156;-77
2021/08/11 00:23:41;;;;;;;15.53;6.40;;;;;;;19.64;74.42;100428.42;126315;1099;104325;-78
2021/08/11 00:26:11;;;;;;;12.80;6.27;;;;;;;19.59;74.72;100427.56;126281;1099;104586;-77
2021/08/11 00:28:42;;;;;;;17.93;6.40;;;;;;;19.53;75.02;100435.56;126286;1099;104197;-75
2021/08/11 00:31:13;;;;;;;13.70;6.63;;;;;;;19.47;75.34;100430.25;126309;1099;104236;-76
2021/08/11 00:33:44;;;;;;;17.10;6.53;;;;;;;19.40;75.54;100434.70;126328;1099;104316;-77
2021/08/11 00:36:15;;;;;;;13.87;6.00;;;;;;;19.39;76.15;100435.58;126291;1099;104921;-77
2021/08/11 00:38:49;;;;;;;14.30;6.07;;;;;;;19.34;75.63;100435.59;126308;1099;104251;-78
2021/08/11 00:41:20;;;;;;;15.33;6.47;;;;;;;19.33;75.64;100431.14;126314;1099;104143;-78
2021/08/11 00:43:52;;;;;;;10.97;5.63;;;;;;;19.33;76.10;100435.59;126333;1099;104251;-78
2021/08/11 00:46:23;;;;;;;12.28;6.25;;;;;;;19.28;75.59;100430.27;125370;1099;104169;-78
2021/08/11 00:48:56;;;;;;;12.70;5.87;;;;;;;19.26;75.64;100417.85;126352;1098;104146;-77
2021/08/11 00:51:27;;;;;;;14.57;5.67;;;;;;;19.27;75.95;100419.63;126325;1099;104156;-77
2021/08/11 00:54:05;;;;;;;12.17;5.80;;;;;;;19.26;76.32;100421.42;126325;1099;104140;-77
2021/08/11 00:56:39;;;;;;;13.35;6.60;;;;;;;19.23;76.00;100413.44;126269;1099;104213;-77
2021/08/11 00:59:11;;;;;;;12.43;6.10;;;;;;;19.22;76.38;100411.66;126312;1098;104261;-77
2021/08/11 01:01:43;;;;;;;10.63;5.77;;;;;;;19.20;76.30;100410.78;126347;1099;104265;-77
2021/08/11 01:04:17;;;;;;;10.50;5.27;;;;;;;19.18;76.32;100407.22;126295;1099;104178;-77
2021/08/11 01:06:48;;;;;;;12.13;5.43;;;;;;;19.19;76.12;100403.69;126266;1099;104332;-77
2021/08/11 01:09:21;;;;;;;11.10;5.70;;;;;;;19.18;76.28;100405.47;126333;1099;104223;-77
2021/08/11 01:11:58;;;;;;;11.47;5.43;;;;;;;19.18;76.34;100405.47;126319;1099;104277;-77
2021/08/11 01:14:32;;;;;;;11.50;5.50;;;;;;;19.17;76.00;100401.02;126365;1099;104207;-77
2021/08/11 01:17:06;;;;;;;13.87;5.17;;;;;;;19.15;75.89;100397.49;126265;1099;104244;-77
2021/08/11 01:19:39;;;;;;;14.20;5.60;;;;;;;19.16;76.07;100403.69;126298;1099;104175;-77
2021/08/11 01:22:17;;;;;;;9.98;5.40;;;;;;;19.13;76.38;100399.24;126340;1099;104143;-77
2021/08/11 01:24:54;;;;;;;12.20;5.70;;;;;;;19.12;76.12;100407.22;126326;1099;104232;-77
2021/08/11 01:27:46;;;;;;;13.23;5.87;;;;;;;19.09;76.53;100407.23;126298;1099;104176;-78
2021/08/11 01:30:22;;;;;;;10.63;5.57;;;;;;;19.04;76.64;100407.23;126328;1099;104214;-78
2021/08/11 01:33:18;;;;;;;8.53;4.97;;;;;;;19.00;76.20;100406.36;126292;1098;104194;-77
2021/08/11 01:35:54;;;;;;;11.33;5.40;;;;;;;18.98;76.25;100412.55;125419;1099;104143;-77
2021/08/11 01:38:31;;;;;;;13.80;5.17;;;;;;;18.95;76.39;100404.61;125279;1099;104178;-76
2021/08/11 01:41:06;;;;;;;13.73;5.57;;;;;;;18.91;76.05;100409.02;125301;1102;104383;-77
2021/08/11 01:43:43;;;;;;;9.40;5.70;;;;;;;18.91;76.33;100409.02;125259;1099;104140;-77
2021/08/11 01:46:16;;;;;;;12.60;5.80;;;;;;;18.90;76.32;100407.27;125283;1099;104210;-77
2021/08/11 01:48:52;;;;;;;12.83;5.43;;;;;;;18.89;76.56;100400.16;125253;1099;105671;-77
2021/08/11 01:51:23;;;;;;;11.63;5.50;;;;;;;18.88;76.39;100414.33;125283;1102;104262;-76
2021/08/11 01:53:55;;;;;;;12.10;5.20;;;;;;;18.87;76.21;100417.89;125319;1102;104192;-77
2021/08/11 01:56:26;;;;;;;12.13;5.10;;;;;;;18.84;76.16;100415.20;125291;1102;104175;-78
2021/08/11 01:59:00;;;;;;;14.93;5.67;;;;;;;18.84;76.74;100425.84;125175;1099;104165;-76
2021/08/11 02:01:31;;;;;;;11.73;5.60;;;;;;;18.81;76.88;100418.73;125259;1099;104332;-76
2021/08/11 02:04:02;;;;;;;13.33;5.90;;;;;;;18.80;76.66;100424.05;125269;1102;104306;-77
2021/08/11 02:06:34;;;;;;;13.20;5.87;;;;;;;18.80;76.26;100426.70;125244;1099;104159;-77
2021/08/11 02:09:09;;;;;;;12.13;5.73;;;;;;;18.81;76.73;100431.15;125236;1099;104300;-78
2021/08/11 02:11:41;;;;;;;13.53;5.63;;;;;;;18.79;77.03;100432.89;126320;1099;104313;-77
2021/08/11 02:14:13;;;;;;;11.43;5.20;;;;;;;18.76;76.41;100430.23;126325;1099;104149;-77
2021/08/11 02:16:45;;;;;;;10.60;5.60;;;;;;;18.72;77.31;100428.48;126307;1099;104159;-77
2021/08/11 02:19:16;;;;;;;15.10;5.90;;;;;;;18.71;76.66;100426.70;126302;1099;104672;-77
2021/08/11 02:21:48;;;;;;;11.13;5.13;;;;;;;18.68;77.18;100431.13;126307;1099;104149;-77
2021/08/11 02:24:19;;;;;;;10.67;5.53;;;;;;;18.65;77.49;100431.13;126305;1099;104153;-77
2021/08/11 02:26:58;;;;;;;12.47;5.67;;;;;;;18.63;77.19;100434.66;126348;1099;104776;-77
2021/08/11 02:29:41;;;;;;;9.37;5.13;;;;;;;18.63;76.71;100432.00;126254;1099;104290;-77
2021/08/11 02:32:19;;;;;;;;;;;;;;;18.61;76.49;100441.75;126377;1099;104162;-77
2021/08/11 02:35:01;;;;;;;11.07;5.33;;;;;;;18.59;77.19;100436.43;126332;1098;104384;-77
2021/08/11 02:37:40;;;;;;;13.98;6.65;;;;;;;18.59;77.17;100436.43;126301;1099;104288;-79
2021/08/11 02:40:19;;;;;;;13.73;5.83;;;;;;;18.57;77.21;100432.86;126292;1099;104179;-77
2021/08/11 02:43:05;;;;;;;9.63;5.17;;;;;;;18.57;77.01;100424.89;126320;1099;104201;-77
2021/08/11 02:45:41;;;;;;;11.27;5.30;;;;;;;18.57;77.28;100442.61;126352;1098;104675;-77
2021/08/11 02:48:15;;;;;;;15.77;6.03;;;;;;;18.56;77.53;100448.80;126319;1099;104918;-76
2021/08/11 02:50:51;;;;;;;14.85;5.28;;;;;;;18.55;77.63;100447.92;126293;1099;104611;-77
2021/08/11 02:53:28;;;;;;;14.00;6.00;;;;;;;18.53;77.57;100441.73;126323;1099;104191;-76
2021/08/11 02:56:03;;;;;;;15.07;6.13;;;;;;;18.53;77.56;100447.05;126274;1098;104181;-77
2021/08/11 02:58:37;;;;;;;15.05;6.00;;;;;;;18.50;77.56;100442.60;126277;1099;104158;-76
2021/08/11 03:01:10;;;;;;;12.88;5.92;;;;;;;18.48;77.94;100446.13;126325;1099;104252;-77
2021/08/11 03:03:46;;;;;;;13.93;5.60;;;;;;;18.45;78.03;100440.80;126295;1099;104143;-78
2021/08/11 03:06:21;;;;;;;14.50;5.57;;;;;;;18.42;77.56;100447.02;126331;1099;104195;-77
2021/08/11 03:08:59;;;;;;;12.27;5.33;;;;;;;18.41;77.79;100445.23;125392;1099;104313;-78
2021/08/11 03:11:35;;;;;;;12.60;5.97;;;;;;;18.40;77.83;100447.88;125442;1099;104172;-77
2021/08/11 03:14:19;;;;;;;15.20;5.60;;;;;;;18.41;77.54;100449.67;126338;1099;104190;-77
2021/08/11 03:16:53;;;;;;;13.77;5.83;;;;;;;18.40;78.18;100447.88;126240;1099;104188;-77
2021/08/11 03:19:25;;;;;;;12.83;5.53;;;;;;;18.42;77.99;100446.14;126043;1099;104237;-77
2021/08/11 03:21:57;;;;;;;14.15;5.60;;;;;;;18.40;77.60;100451.45;126270;1099;104389;-77
2021/08/11 03:24:31;;;;;;;13.77;5.17;;;;;;;18.40;77.92;100458.52;125426;1099;104162;-76
2021/08/11 03:27:02;;;;;;;15.57;6.73;;;;;;;18.37;78.37;100458.50;126320;1099;104695;-78
2021/08/11 03:29:33;;;;;;;15.63;5.63;;;;;;;18.38;78.00;100460.28;126281;1099;104187;-77
2021/08/11 03:32:04;;;;;;;13.57;5.70;;;;;;;18.36;78.04;100457.63;125445;1099;104213;-76
2021/08/11 03:34:35;;;;;;;12.37;5.53;;;;;;;18.39;78.12;100459.41;126309;1099;104264;-77
2021/08/11 03:37:07;;;;;;;13.60;5.70;;;;;;;18.39;78.08;100456.76;126314;1099;104142;-77
2021/08/11 03:39:42;;;;;;;12.30;5.37;;;;;;;18.40;78.21;100464.73;125239;1099;104241;-77
2021/08/11 03:42:15;;;;;;;13.23;6.00;;;;;;;18.43;78.23;100461.17;125197;1099;104751;-76
2021/08/11 03:44:46;;;;;;;13.87;6.00;;;;;;;18.44;78.29;100457.65;125323;1099;104290;-78
2021/08/11 03:47:18;;;;;;;13.23;6.03;;;;;;;18.47;78.49;100468.28;125207;1099;104296;-76
2021/08/11 03:49:50;;;;;;;9.40;5.07;;;;;;;18.48;78.54;100465.63;125323;1099;104370;-77
2021/08/11 03:52:21;;;;;;;17.90;6.10;;;;;;;18.50;78.29;100471.83;125290;1099;104156;-77
2021/08/11 03:54:53;;;;;;;12.90;5.50;;;;;;;18.53;78.17;100465.65;125242;1099;104316;-77
2021/08/11 03:57:26;;;;;;;16.93;6.07;;;;;;;18.57;77.80;100466.53;125264;1102;104303;-77
2021/08/11 03:59:56;;;;;;;11.67;5.53;;;;;;;18.60;77.74;100467.41;125190;1099;104319;-77
2021/08/11 04:02:27;;;;;;;14.03;5.60;;;;;;;18.64;77.96;100460.36;125322;1099;104178;-76
2021/08/11 04:04:58;;;;;;;12.70;5.63;;;;;;;18.67;77.90;100461.23;125322;1099;104306;-77
2021/08/11 04:07:28;;;;;;;11.15;5.50;;;;;;;18.69;78.53;100474.53;125231;1099;104364;-76
2021/08/11 04:09:59;;;;;;;10.70;5.30;;;;;;;18.70;77.88;100468.34;125239;1099;104232;-77
2021/08/11 04:12:30;;;;;;;14.77;5.40;;;;;;;18.73;77.61;100468.34;126139;1099;104248;-77
2021/08/11 04:15:00;;;;;;;13.63;6.10;;;;;;;18.77;78.11;100469.23;126376;1099;104198;-77
2021/08/11 04:17:31;;;;;;;14.13;5.40;;;;;;;18.81;77.40;100468.36;126346;1099;104191;-77
2021/08/11 04:20:02;;;;;;;12.53;5.57;;;;;;;18.86;77.49;100471.94;126241;1099;104150;-77
2021/08/11 04:22:32;;;;;;;10.53;4.93;;;;;;;18.89;77.33;100466.63;126316;1099;104142;-77
2021/08/11 04:25:03;;;;;;;15.40;5.70;;;;;;;18.93;77.64;100473.73;126303;1099;104166;-77
2021/08/11 04:27:44;;;;;;;10.77;5.67;;;;;;;18.96;77.72;100475.48;126345;1099;104576;-77
2021/08/11 04:30:21;;;;;;;13.73;5.13;;;;;;;19.01;77.32;100479.02;126247;1099;104159;-77
2021/08/11 04:32:52;;;;;;;13.45;5.30;;;;;;;19.02;77.13;100476.37;126312;1099;104348;-77
2021/08/11 04:35:22;;;;;;;14.10;5.87;;;;;;;19.07;77.11;100472.84;126343;1099;104258;-76
2021/08/11 04:37:53;;;;;;;15.17;5.67;;;;;;;19.09;77.38;100471.05;126120;1099;104806;-76
2021/08/11 04:40:24;;;;;;;15.40;6.50;;;;;;;19.13;77.23;100465.73;126256;1099;104265;-77
2021/08/11 04:42:56;;;;;;;12.90;5.40;;;;;;;19.16;77.36;100470.18;126295;1099;104197;-77
2021/08/11 04:45:30;;;;;;;13.60;5.80;;;;;;;19.21;77.37;100463.08;126295;1098;104720;-77
2021/08/11 04:48:01;;;;;;;13.23;5.50;;;;;;;19.28;76.97;100467.52;126306;1099;104173;-77
2021/08/11 04:50:31;;;;;;;12.60;5.77;;;;;;;19.35;77.13;100463.98;126253;1098;104252;-77
2021/08/11 04:53:02;;;;;;;13.87;5.50;;;;;;;19.41;76.58;100460.41;126266;1099;104152;-78
2021/08/11 04:55:33;;;;;;;10.60;5.50;;;;;;;19.44;76.29;100468.38;126328;1098;104365;-78
2021/08/11 04:58:03;;;;;;;13.70;5.43;;;;;;;19.46;76.02;100465.72;126294;1099;104140;-78
2021/08/11 05:00:34;;;;;;;12.87;5.57;;;;;;;19.48;75.98;100459.52;126322;1099;104146;-78
2021/08/11 05:03:06;;;;;;;12.87;5.23;;;;;;;19.52;76.20;100466.59;126225;1099;112458;-78
2021/08/11 05:05:37;;;;;;;13.10;5.27;;;;;;;19.58;76.12;100468.36;126187;1099;104174;-78
2021/08/11 05:08:14;;;;;;;14.53;5.37;;;;;;;19.65;75.49;100469.23;126276;1099;104159;-79
2021/08/11 05:10:47;;;;;;;16.10;5.87;;;;;;;19.71;75.42;100470.13;126321;1099;104142;-79
2021/08/11 05:13:21;;;;;;;13.80;5.80;;;;;;;19.77;75.18;100461.25;126269;1099;104140;-80
2021/08/11 05:15:53;;;;;;;15.43;5.65;;;;;;;19.83;75.00;100466.56;126275;1098;104162;-79
2021/08/11 05:18:23;;;;;;;13.80;5.77;;;;;;;19.90;74.78;100459.46;126301;1099;104262;-79
2021/08/11 05:20:55;;;;;;;14.57;5.87;;;;;;;19.97;74.64;100462.98;126222;1098;104325;-78
2021/08/11 05:23:30;;;;;;;16.23;6.00;;;;;;;20.04;74.73;100459.38;126184;1099;104297;-79
2021/08/11 05:26:03;;;;;;;17.67;5.90;;;;;;;20.10;75.03;100460.27;126225;1099;104195;-76
2021/08/11 05:28:39;;;;;;;21.50;5.80;;;;;;;20.17;74.27;100470.89;126249;1099;104167;-77
2021/08/11 05:31:13;;;;;;;16.77;6.20;;;;;;;20.23;74.78;100471.75;126302;1098;104316;-77
2021/08/11 05:33:45;;;;;;;17.50;6.10;;;;;;;20.31;73.75;100468.17;126277;1099;120018;-78
2021/08/11 05:36:23;;;;;;;16.97;5.50;;;;;;;20.37;74.39;100468.14;126185;1099;104352;-79
2021/08/11 05:38:58;;;;;;;16.60;5.93;;;;;;;20.44;73.27;100460.11;125254;1099;104165;-80
2021/08/11 05:41:34;;;;;;;18.13;6.30;;;;;;;20.53;73.81;100460.94;126084;1099;104220;-79
2021/08/11 05:44:09;;;;;;;19.23;5.83;;;;;;;20.61;73.56;100459.11;126187;1099;104319;-77
2021/08/11 05:46:44;;;;;;;19.10;6.27;;;;;;;20.70;72.41;100459.08;126035;1098;104203;-78
2021/08/11 05:49:15;;;;;;;18.10;5.93;;;;;;;20.78;72.25;100465.23;126061;1099;104172;-78
2021/08/11 05:51:49;;;;;;;20.20;6.67;;;;;;;20.88;72.34;100457.17;126147;1099;104258;-77
2021/08/11 05:54:26;;;;;;;15.47;5.67;;;;;;;20.98;72.63;100457.09;126138;1098;110654;-77
2021/08/11 05:56:58;;;;;;;16.00;5.90;;;;;;;21.06;72.49;100457.03;126063;1099;104277;-77
2021/08/11 05:59:32;;;;;;;14.43;6.13;;;;;;;21.14;72.55;100457.84;126149;1099;104347;-77
2021/08/11 06:02:09;;;;;;;15.97;5.87;;;;;;;21.22;71.38;100459.58;126054;1099;105750;-78
2021/08/11 06:04:47;;;;;;;20.63;6.13;;;;;;;21.29;71.48;100461.30;125998;1099;104146;-78
2021/08/11 06:07:28;;;;;;;14.27;5.47;;;;;;;21.35;71.67;100459.45;126031;1099;104255;-79
2021/08/11 06:10:04;;;;;;;14.00;5.27;;;;;;;21.44;70.60;100458.50;125883;1099;104197;-79
2021/08/11 06:12:44;;;;;;;14.40;5.20;;;;;;;21.54;71.44;100457.52;125911;1099;104238;-79
2021/08/11 06:15:19;;;;;;;13.57;5.73;;;;;;;21.65;70.59;100459.20;125166;1099;107088;-79
2021/08/11 06:17:53;;;;;;;13.43;5.70;;;;;;;21.75;69.83;100452.84;125981;1099;104185;-79
2021/08/11 06:20:37;;;;;;;21.37;6.50;;;;;;;21.82;70.30;100457.23;126019;1099;104232;-81
2021/08/11 06:23:12;;;;;;;;;;;;;;;21.89;69.57;100452.69;125964;1099;102253;-79
2021/08/11 06:25:53;;;;;;;13.20;5.30;;;;;;;21.96;69.42;100458.87;125903;1099;104267;-78
2021/08/11 06:28:28;;;;;;;13.80;5.50;;;;;;;22.01;69.83;100457.02;125189;1099;104296;-80
2021/08/11 06:31:05;;;;;;;14.43;5.30;;;;;;;22.09;69.24;100452.45;125327;1099;104178;-79
2021/08/11 06:33:41;;;;;;;13.97;5.13;;;;;;;22.16;69.03;100446.14;125231;1099;104172;-78
2021/08/11 06:36:20;;;;;;;12.70;5.70;;;;;;;22.24;69.03;100446.91;126063;1099;104216;-81
2021/08/11 06:38:55;;;;;;;14.13;5.60;;;;;;;22.32;68.26;100451.31;125378;1099;102528;-80
2021/08/11 06:41:43;;;;;;;14.57;5.80;;;;;;;22.38;68.22;100451.23;126001;1099;104322;-80
2021/08/11 06:44:48;;;;;;;11.30;5.60;;;;;;;22.46;68.28;100453.80;125209;1102;102794;-78
2021/08/11 06:47:24;;;;;;;14.83;5.77;;;;;;;22.55;68.38;100454.55;125244;1099;104287;-78
2021/08/11 06:49:59;;;;;;;16.73;5.07;;;;;;;22.66;68.32;100449.05;125253;1102;104281;-79
2021/08/11 06:52:34;;;;;;;10.87;5.50;;;;;;;22.79;68.08;100452.41;125286;1099;104140;-79
2021/08/11 06:55:11;;;;;;;16.10;5.60;;;;;;;22.92;67.38;100451.32;125572;1099;104335;-77
2021/08/11 06:57:47;;;;;;;19.27;5.87;;;;;;;23.03;66.99;100439.53;125948;1099;104446;-78
2021/08/11 07:00:22;;;;;;;11.03;5.20;;;;;;;23.15;66.78;100439.36;125173;1102;104150;-77
2021/08/11 07:03:04;;;;;;;14.57;5.60;;;;;;;23.28;66.77;100440.94;125346;1099;104123;-78
2021/08/11 07:05:43;;;;;;;12.20;5.27;;;;;;;23.45;66.46;100432.59;125780;1099;102162;-77
2021/08/11 07:08:16;;;;;;;10.87;5.10;;;;;;;23.59;66.33;100437.70;126139;1099;104147;-77
2021/08/11 07:10:51;;;;;;;17.27;5.00;;;;;;;23.71;65.97;100436.55;125388;1099;104303;-76
2021/08/11 07:13:27;;;;;;;14.13;5.47;;;;;;;23.88;65.13;100440.74;125346;1100;104216;-76
2021/08/11 07:16:04;;;;;;;15.97;5.57;;;;;;;24.04;65.21;100440.41;126069;1099;105675;-78
2021/08/11 07:18:37;;;;;;;15.17;5.60;;;;;;;24.20;64.31;100443.63;126258;1099;104214;-78
2021/08/11 07:21:17;;;;;;;12.90;5.10;;;;;;;24.39;63.68;100432.50;125313;1099;104187;-77
2021/08/11 07:23:52;;;;;;;15.90;5.80;;;;;;;24.58;63.34;100435.67;125376;1099;104153;-76
2021/08/11 07:26:26;;;;;;;11.70;4.83;;;;;;;24.75;63.00;100436.15;125276;1099;104162;-80
2021/08/11 07:29:00;;;;;;;12.47;5.33;;;;;;;24.92;61.85;100432.19;125261;1099;104143;-78
2021/08/11 07:31:40;;;;;;;10.23;5.00;;;;;;;25.08;62.30;100429.99;125304;1099;104303;-78
2021/08/11 07:34:14;;;;;;;10.73;5.23;;;;;;;25.27;61.76;100422.34;126103;1099;104297;-78
2021/08/11 07:36:50;;;;;;;11.77;4.87;;;;;;;25.46;61.03;100418.28;125343;1102;104140;-78
2021/08/11 07:39:28;;;;;;;10.50;4.97;;;;;;;25.64;60.05;100427.62;125284;1099;104264;-79
2021/08/11 07:42:05;;;;;;;14.33;5.80;;;;;;;25.87;60.19;100422.51;125233;1102;104216;-77
2021/08/11 07:44:37;;;;;;;18.70;5.80;;;;;;;25.93;60.49;100422.33;125217;1099;105239;-78
2021/08/11 07:47:08;;;;;;;11.87;5.23;;;;;;;26.06;59.32;100433.66;126159;1099;104224;-76
2021/08/11 07:49:41;;;;;;;10.60;4.60;;;;;;;26.22;58.24;100434.95;125973;1099;104363;-76
2021/08/11 07:52:11;;;;;;;;;;;;;;;26.40;55.67;100438.00;126102;1099;104146;-76
2021/08/11 07:54:48;;;;;;;12.27;5.20;;;;;;;26.50;56.79;100426.91;125401;1099;104373;-77
2021/08/11 07:57:19;;;;;;;17.40;4.97;;;;;;;26.64;56.81;100430.98;125267;1102;104176;-78
2021/08/11 07:59:53;;;;;;;14.18;4.95;;;;;;;26.75;56.65;100428.84;125266;1099;104213;-78
2021/08/11 08:02:26;;;;;;;12.70;5.05;;;;;;;26.98;56.59;100420.02;125228;1100;104455;-77
2021/08/11 08:05:01;;;;;;;11.97;4.53;;;;;;;27.13;54.64;100424.02;125324;1099;104166;-78
2021/08/11 08:07:37;;;;;;;11.53;4.50;;;;;;;27.28;55.15;100417.20;126228;1099;104223;-79
2021/08/11 08:10:13;;;;;;;6.90;4.00;;;;;;;27.37;53.47;100421.42;126231;1099;104245;-78
2021/08/11 08:12:49;;;;;;;8.43;4.40;;;;;;;27.45;53.73;100411.25;126192;1099;104181;-79
2021/08/11 08:15:23;;;;;;;10.20;4.40;;;;;;;27.50;52.47;100409.26;125328;1099;104246;-78
2021/08/11 08:18:12;;;;;;;12.30;4.37;;;;;;;27.64;52.19;100413.28;126117;1099;110902;-77
2021/08/11 08:20:45;;;;;;;8.10;4.07;;;;;;;27.73;50.95;100412.94;126273;1099;104233;-78
2021/08/11 08:23:17;;;;;;;11.80;3.65;;;;;;;27.84;51.66;100405.33;126287;1099;104714;-80
2021/08/11 08:25:51;;;;;;;12.23;4.40;;;;;;;27.90;52.09;100407.80;126042;1099;104245;-79
2021/08/11 08:28:37;;;;;;;10.10;4.23;;;;;;;27.97;50.88;100406.67;125250;1099;104220;-79
2021/08/11 08:31:11;;;;;;;14.20;4.50;;;;;;;28.04;50.25;100406.44;126315;1099;104195;-79
2021/08/11 08:33:50;;;;;;;6.87;4.00;;;;;;;28.10;49.56;100408.90;126256;1099;104249;-78
2021/08/11 08:36:27;;;;;;;6.67;3.43;;;;;;;28.06;47.29;100408.11;126188;1099;104171;-79
2021/08/11 08:39:01;;;;;;;5.15;3.50;;;;;;;28.07;46.70;100406.32;125108;1102;104187;-78
2021/08/11 08:41:38;;;;;;;7.20;3.60;;;;;;;28.02;46.40;100398.41;125214;1102;104351;-79
2021/08/11 08:44:13;;;;;;;8.90;4.33;;;;;;;28.12;47.43;100398.92;125208;1102;104319;-77
2021/08/11 08:46:51;;;;;;;7.97;3.50;;;;;;;28.23;46.83;100402.06;125264;1102;104172;-78
2021/08/11 08:49:26;;;;;;;6.57;3.80;;;;;;;28.31;45.87;100399.97;125273;1102;104852;-79
2021/08/11 08:52:04;;;;;;;7.03;3.57;;;;;;;28.35;46.01;100389.05;125175;1102;104281;-80
2021/08/11 08:54:40;;;;;;;6.83;3.60;;;;;;;28.35;44.71;100389.05;125255;1102;104204;-82
2021/08/11 08:57:19;;;;;;;5.47;3.50;;;;;;;28.37;45.18;100392.56;125107;1102;104174;-79
2021/08/11 09:00:00;;;;;;;10.37;3.53;;;;;;;28.28;44.13;100393.80;125172;1102;104482;-80
2021/08/11 09:02:32;;;;;;;4.23;3.30;;;;;;;28.27;43.16;100386.66;125242;1102;104175;-79
2021/08/11 09:05:04;;;;;;;6.67;3.30;;;;;;;28.38;43.84;100388.93;125231;1102;104758;-76
2021/08/11 09:07:47;;;;;;;9.33;3.90;;;;;;;28.42;44.00;100391.45;125158;1102;104283;-77
2021/08/11 09:10:25;;;;;;;5.50;3.53;;;;;;;28.47;42.88;100381.34;125044;1102;104399;-78
2021/08/11 09:13:03;;;;;;;5.23;3.40;;;;;;;28.47;41.90;100391.23;125294;1102;104309;-76
2021/08/11 09:15:40;;;;;;;5.80;3.37;;;;;;;28.39;42.06;100383.48;125271;1102;104312;-76
2021/08/11 09:18:26;;;;;;;6.77;3.60;;;;;;;28.41;41.78;100388.81;125103;1102;104399;-78
2021/08/11 09:23:56;;;;;;;8.20;4.03;;;;;;;28.32;41.76;100380.13;125891;1099;104147;-78
2021/08/11 09:26:42;;;;;;;7.17;3.67;;;;;;;28.36;41.74;100383.59;125148;1099;104168;-76
2021/08/11 09:29:18;;;;;;;6.10;3.40;;;;;;;28.41;41.09;100376.19;125165;1099;104284;-76
2021/08/11 09:31:49;;;;;;;5.83;3.70;;;;;;;28.46;40.81;100382.27;125205;1099;104140;-76
2021/08/11 09:34:21;;;;;;;5.53;3.50;;;;;;;28.53;40.94;100371.22;125111;1102;104149;-77
2021/08/11 09:36:59;;;;;;;6.83;3.40;;;;;;;28.57;40.62;100368.33;125196;1101;104227;-77
2021/08/11 09:39:40;;;;;;;8.30;3.40;;;;;;;28.67;41.03;100356.26;125221;1099;104150;-79
2021/08/11 09:42:13;;;;;;;7.33;3.77;;;;;;;28.67;39.88;100358.95;125234;1100;104213;-78
2021/08/11 09:44:58;;;;;;;;;;;;;;;28.67;38.09;100369.76;125192;1099;104168;-76
2021/08/11 09:47:34;;;;;;;7.03;3.50;;;;;;;28.67;39.83;100364.36;125204;1099;104252;-78
2021/08/11 09:50:12;;;;;;;6.40;3.50;;;;;;;28.64;39.51;100361.78;125108;1102;104248;-77
2021/08/11 09:52:49;;;;;;;9.90;3.57;;;;;;;28.64;39.38;100359.09;125108;1102;104274;-78
2021/08/11 09:55:32;;;;;;;5.37;3.40;;;;;;;28.63;39.09;100361.84;125189;1099;104178;-78
2021/08/11 09:58:22;;;;;;;9.98;3.62;;;;;;;28.62;39.76;100360.08;125119;1099;104178;-76
2021/08/11 10:01:06;;;;;;;8.40;3.63;;;;;;;28.64;39.81;100363.59;125145;1102;104152;-77
2021/08/11 10:04:21;;;;;;;;;;;;;;;;;;;;;
2021/08/11 10:17:58;;;;;;;6.00;3.67;;;;;;;28.81;39.62;100344.88;124872;1103;104303;-77
2021/08/11 10:20:43;;;;;;;7.73;4.20;;;;;;;28.84;39.64;100352.84;124935;1102;104155;-78
2021/08/11 10:23:19;;;;;;;5.78;3.45;;;;;;;28.91;39.99;100350.75;124899;1102;104283;-78
2021/08/11 10:26:27;;;;;;;6.93;3.53;;;;;;;28.92;39.58;100355.22;124970;1102;104303;-79
2021/08/11 10:29:00;;;;;;;9.60;4.20;;;;;;;28.89;40.12;100352.66;124949;1103;104382;-77
2021/08/11 10:31:32;;;;;;;5.57;3.77;;;;;;;28.93;39.50;100348.86;124853;1105;104159;-79
2021/08/11 10:34:08;;;;;;;7.00;3.60;;;;;;;28.93;38.84;100358.79;124904;1105;104297;-76
2021/08/11 10:36:52;;;;;;;6.37;3.40;;;;;;;28.88;38.69;100345.48;124866;1105;104274;-77
2021/08/11 10:40:02;;;;;;;6.70;3.70;;;;;;;29.00;39.10;100358.46;124916;1105;104185;-78
2021/08/11 10:43:27;;;;;;;7.37;3.77;;;;;;;29.03;38.31;100361.03;124599;1109;104153;-77
2021/08/11 10:46:21;;;;;;;10.00;3.67;;;;;;;29.02;38.59;100347.59;124616;1109;105629;-77
2021/08/11 10:52:34;;;;;;;8.33;3.90;;;;;;;29.06;38.34;100343.79;124890;1106;104201;-78
2021/08/11 10:56:20;;;;;;;10.82;3.60;;;;;;;28.96;37.93;100364.92;124910;1105;104239;-76
2021/08/11 11:03:21;;;;;;;8.33;3.23;;;;;;;28.93;37.94;100351.55;124298;1109;104584;-78
2021/08/11 11:09:30;;;;;;;6.97;3.80;;;;;;;28.96;38.24;100359.52;124269;1112;104197;-78
2021/08/11 11:12:46;;;;;;;8.33;4.13;;;;;;;28.93;38.69;100348.86;124239;1112;104482;-78
2021/08/11 11:16:07;;;;;;;;;;;;;;;;;;;;;
2021/08/11 11:19:09;;;;;;;9.23;3.90;;;;;;;29.04;38.84;100343.86;124555;1105;104217;-77
2021/08/11 11:21:44;;;;;;;6.53;3.70;;;;;;;29.08;39.21;100346.42;124675;1105;104169;-77
2021/08/11 11:24:42;;;;;;;8.30;4.30;;;;;;;29.14;39.32;100344.36;124655;1105;104268;-77
2021/08/11 11:27:52;;;;;;;5.90;3.30;;;;;;;29.14;38.82;100335.35;124639;1105;104194;-77
2021/08/11 11:30:39;;;;;;;7.80;3.80;;;;;;;29.13;37.95;100344.42;124631;1109;104632;-77
2021/08/11 11:33:47;;;;;;;9.33;3.53;;;;;;;29.19;38.39;100336.05;124690;1109;104657;-78
2021/08/11 11:36:39;;;;;;;5.40;3.67;;;;;;;29.25;37.99;100345.72;124711;1109;104319;-78
2021/08/11 11:43:34;;;;;;;6.35;3.80;;;;;;;29.23;37.76;100329.58;124824;1106;104640;-77
2021/08/11 11:46:36;;;;;;;6.87;4.03;;;;;;;29.23;37.56;100329.58;124919;1105;104329;-79
2021/08/11 12:06:33;;;;;;;7.67;3.50;;;;;;;29.48;36.67;100313.16;125163;1102;104143;-78
2021/08/11 12:10:32;;;;;;;;;;;;;;;;;;;;;
2021/08/11 12:14:06;;;;;;;5.97;3.50;;;;;;;29.43;35.51;100295.38;125018;1103;104204;-81
2021/08/11 12:17:39;;;;;;;6.90;3.30;;;;;;;29.47;35.30;100297.00;124904;1102;103235;-78
2021/08/11 12:28:18;;;;;;;9.50;3.73;;;;;;;29.57;35.56;100307.29;124074;1115;104386;-79
2021/08/11 12:31:24;;;;;;;7.73;3.40;;;;;;;29.57;35.58;100309.99;124146;1112;104412;-78
2021/08/11 12:34:12;;;;;;;;;;;;;;;29.59;34.72;100315.33;124327;1112;104386;-80
2021/08/11 12:36:43;;;;;;;6.10;3.30;;;;;;;29.63;35.50;100307.97;124353;1111;104299;-80
2021/08/11 12:39:19;;;;;;;6.47;3.67;;;;;;;29.62;35.50;100293.56;124183;1112;104185;-80
2021/08/11 12:42:05;;;;;;;5.40;3.67;;;;;;;29.57;35.54;100296.48;124016;1115;104386;-76
2021/08/11 12:44:38;;;;;;;8.20;3.53;;;;;;;29.58;35.57;100290.13;124275;1112;104201;-79
2021/08/11 12:47:17;;;;;;;6.47;3.58;;;;;;;29.65;35.91;100292.55;124396;1112;104370;-78
2021/08/11 12:50:05;;;;;;;10.17;3.30;;;;;;;29.66;35.72;100286.20;124320;1112;104351;-79
2021/08/11 12:52:52;;;;;;;8.53;3.50;;;;;;;29.67;35.45;100288.84;124396;1112;104371;-79